sensor_id;sensor_type;location;lat;lon;timestamp;temperature;humidity
4366;DHT22;2196;47.422;9.656;2023-03-14T00:00:24;11.80;99.90
4366;DHT22;2196;47.422;9.656;2023-03-14T00:02:52;11.60;99.90
4366;DHT22;2196;47.422;9.656;2023-03-14T00:05:19;11.40;99.90
4366;DHT22;2196;47.422;9.656;2023-03-14T00:07:46;11.10;99.90
4366;DHT22;2196;47.422;9.656;2023-03-14T00:10:14;10.90;99.90
4366;DHT22;2196;47.422;9.656;2023-03-14T00:12:42;10.80;99.90
4366;DHT22;2196;47.422;9.656;2023-03-14T00:15:11;10.70;99.90
4366;DHT22;2196;47.422;9.656;2023-03-14T00:17:38;10.60;99.90
4366;DHT22;2196;47.422;9.656;2023-03-14T00:20:07;10.50;99.90
4366;DHT22;2196;47.422;9.656;2023-03-14T00:22:37;10.50;99.90
4366;DHT22;2196;47.422;9.656;2023-03-14T00:25:05;10.50;99.90
4366;DHT22;2196;47.422;9.656;2023-03-14T00:27:33;10.40;99.90
4366;DHT22;2196;47.422;9.656;2023-03-14T00:30:00;10.40;99.90
4366;DHT22;2196;47.422;9.656;2023-03-14T00:32:28;10.40;99.90
4366;DHT22;2196;47.422;9.656;2023-03-14T00:34:56;10.50;99.90
4366;DHT22;2196;47.422;9.656;2023-03-14T00:37:23;10.50;99.90
4366;DHT22;2196;47.422;9.656;2023-03-14T00:39:51;10.40;99.90
4366;DHT22;2196;47.422;9.656;2023-03-14T00:42:18;10.30;99.90
4366;DHT22;2196;47.422;9.656;2023-03-14T00:44:45;10.40;99.90
4366;DHT22;2196;47.422;9.656;2023-03-14T00:47:12;10.50;99.90
4366;DHT22;2196;47.422;9.656;2023-03-14T00:49:41;10.50;99.90
4366;DHT22;2196;47.422;9.656;2023-03-14T00:52:11;10.40;99.90
4366;DHT22;2196;47.422;9.656;2023-03-14T00:54:38;10.50;99.90
4366;DHT22;2196;47.422;9.656;2023-03-14T00:57:05;10.40;99.90
4366;DHT22;2196;47.422;9.656;2023-03-14T00:59:32;10.40;99.90
4366;DHT22;2196;47.422;9.656;2023-03-14T01:01:59;10.40;99.90
4366;DHT22;2196;47.422;9.656;2023-03-14T01:04:26;10.40;99.90
4366;DHT22;2196;47.422;9.656;2023-03-14T01:06:55;10.30;99.90
4366;DHT22;2196;47.422;9.656;2023-03-14T01:09:22;10.20;99.90
4366;DHT22;2196;47.422;9.656;2023-03-14T01:11:49;10.20;99.90
4366;DHT22;2196;47.422;9.656;2023-03-14T01:14:16;10.20;99.90
4366;DHT22;2196;47.422;9.656;2023-03-14T01:16:43;10.10;99.90
4366;DHT22;2196;47.422;9.656;2023-03-14T01:19:10;10.10;99.90
4366;DHT22;2196;47.422;9.656;2023-03-14T01:21:37;10.10;99.90
4366;DHT22;2196;47.422;9.656;2023-03-14T01:24:06;10.20;99.90
4366;DHT22;2196;47.422;9.656;2023-03-14T01:26:34;10.10;99.90
4366;DHT22;2196;47.422;9.656;2023-03-14T01:29:02;10.10;99.90
4366;DHT22;2196;47.422;9.656;2023-03-14T01:31:29;10.10;99.90
4366;DHT22;2196;47.422;9.656;2023-03-14T01:33:56;10.20;99.90
4366;DHT22;2196;47.422;9.656;2023-03-14T01:36:23;10.10;99.90
4366;DHT22;2196;47.422;9.656;2023-03-14T01:38:50;10.00;99.90
4366;DHT22;2196;47.422;9.656;2023-03-14T01:41:20;10.10;99.90
4366;DHT22;2196;47.422;9.656;2023-03-14T01:43:48;10.10;99.90
4366;DHT22;2196;47.422;9.656;2023-03-14T01:46:24;10.00;99.90
4366;DHT22;2196;47.422;9.656;2023-03-14T01:48:59;10.00;99.90
4366;DHT22;2196;47.422;9.656;2023-03-14T01:51:30;9.80;99.90
4366;DHT22;2196;47.422;9.656;2023-03-14T01:54:07;9.70;99.90
4366;DHT22;2196;47.422;9.656;2023-03-14T01:56:37;9.50;99.90
4366;DHT22;2196;47.422;9.656;2023-03-14T01:59:07;9.50;99.90
4366;DHT22;2196;47.422;9.656;2023-03-14T02:01:35;9.50;99.90
4366;DHT22;2196;47.422;9.656;2023-03-14T02:04:04;9.50;99.90
4366;DHT22;2196;47.422;9.656;2023-03-14T02:06:39;9.40;99.90
4366;DHT22;2196;47.422;9.656;2023-03-14T02:09:08;9.60;99.90
4366;DHT22;2196;47.422;9.656;2023-03-14T02:11:36;9.60;99.90
4366;DHT22;2196;47.422;9.656;2023-03-14T02:14:03;9.60;99.90
4366;DHT22;2196;47.422;9.656;2023-03-14T02:16:31;9.50;99.90
4366;DHT22;2196;47.422;9.656;2023-03-14T02:18:58;9.50;99.90
4366;DHT22;2196;47.422;9.656;2023-03-14T02:21:37;9.50;99.90
4366;DHT22;2196;47.422;9.656;2023-03-14T02:24:09;9.40;99.90
4366;DHT22;2196;47.422;9.656;2023-03-14T02:29:41;9.30;99.90
4366;DHT22;2196;47.422;9.656;2023-03-14T02:32:09;9.40;99.90
4366;DHT22;2196;47.422;9.656;2023-03-14T02:34:37;9.50;99.90
4366;DHT22;2196;47.422;9.656;2023-03-14T02:37:05;9.40;99.90
4366;DHT22;2196;47.422;9.656;2023-03-14T02:39:36;9.30;99.90
4366;DHT22;2196;47.422;9.656;2023-03-14T02:42:04;9.30;99.90
4366;DHT22;2196;47.422;9.656;2023-03-14T02:44:32;9.30;99.90
4366;DHT22;2196;47.422;9.656;2023-03-14T02:47:02;9.30;99.90
4366;DHT22;2196;47.422;9.656;2023-03-14T02:49:30;9.40;99.90
4366;DHT22;2196;47.422;9.656;2023-03-14T02:51:58;9.30;99.90
4366;DHT22;2196;47.422;9.656;2023-03-14T02:54:25;9.30;99.90
4366;DHT22;2196;47.422;9.656;2023-03-14T02:56:52;9.30;99.90
4366;DHT22;2196;47.422;9.656;2023-03-14T02:59:19;9.30;99.90
4366;DHT22;2196;47.422;9.656;2023-03-14T03:01:46;9.30;99.90
4366;DHT22;2196;47.422;9.656;2023-03-14T03:04:14;9.20;99.90
4366;DHT22;2196;47.422;9.656;2023-03-14T03:06:41;9.20;99.90
4366;DHT22;2196;47.422;9.656;2023-03-14T03:09:09;9.20;99.90
4366;DHT22;2196;47.422;9.656;2023-03-14T03:11:36;9.30;99.90
4366;DHT22;2196;47.422;9.656;2023-03-14T03:14:03;9.30;99.90
4366;DHT22;2196;47.422;9.656;2023-03-14T03:16:30;9.30;99.90
4366;DHT22;2196;47.422;9.656;2023-03-14T03:18:57;9.30;99.90
4366;DHT22;2196;47.422;9.656;2023-03-14T03:21:25;9.20;99.90
4366;DHT22;2196;47.422;9.656;2023-03-14T03:23:52;9.20;99.90
4366;DHT22;2196;47.422;9.656;2023-03-14T03:26:19;9.20;99.90
4366;DHT22;2196;47.422;9.656;2023-03-14T03:28:46;9.20;99.90
4366;DHT22;2196;47.422;9.656;2023-03-14T03:31:13;9.20;99.90
4366;DHT22;2196;47.422;9.656;2023-03-14T03:33:40;9.20;99.90
4366;DHT22;2196;47.422;9.656;2023-03-14T03:36:08;9.20;99.90
4366;DHT22;2196;47.422;9.656;2023-03-14T03:38:37;9.10;99.90
4366;DHT22;2196;47.422;9.656;2023-03-14T03:41:05;9.00;99.90
4366;DHT22;2196;47.422;9.656;2023-03-14T03:43:33;9.00;99.90
4366;DHT22;2196;47.422;9.656;2023-03-14T03:46:03;9.00;99.90
4366;DHT22;2196;47.422;9.656;2023-03-14T03:48:30;9.00;99.90
4366;DHT22;2196;47.422;9.656;2023-03-14T03:50:57;9.00;99.90
4366;DHT22;2196;47.422;9.656;2023-03-14T03:53:24;8.90;99.90
4366;DHT22;2196;47.422;9.656;2023-03-14T03:55:52;8.90;99.90
4366;DHT22;2196;47.422;9.656;2023-03-14T03:58:19;8.90;99.90
4366;DHT22;2196;47.422;9.656;2023-03-14T04:00:46;8.90;99.90
4366;DHT22;2196;47.422;9.656;2023-03-14T04:03:13;8.80;99.90
4366;DHT22;2196;47.422;9.656;2023-03-14T04:05:40;8.80;99.90
4366;DHT22;2196;47.422;9.656;2023-03-14T04:08:07;8.70;99.90
4366;DHT22;2196;47.422;9.656;2023-03-14T04:10:35;8.80;99.90
4366;DHT22;2196;47.422;9.656;2023-03-14T04:13:03;8.90;99.90
4366;DHT22;2196;47.422;9.656;2023-03-14T04:15:30;8.90;99.90
4366;DHT22;2196;47.422;9.656;2023-03-14T04:17:58;8.90;99.90
4366;DHT22;2196;47.422;9.656;2023-03-14T04:20:25;8.90;99.90
4366;DHT22;2196;47.422;9.656;2023-03-14T04:22:52;8.90;99.90
4366;DHT22;2196;47.422;9.656;2023-03-14T04:25:19;8.90;99.90
4366;DHT22;2196;47.422;9.656;2023-03-14T04:27:47;8.90;99.90
4366;DHT22;2196;47.422;9.656;2023-03-14T04:30:18;8.90;99.90
4366;DHT22;2196;47.422;9.656;2023-03-14T04:32:45;8.80;99.90
4366;DHT22;2196;47.422;9.656;2023-03-14T04:35:12;8.90;99.90
4366;DHT22;2196;47.422;9.656;2023-03-14T04:37:39;8.80;99.90
4366;DHT22;2196;47.422;9.656;2023-03-14T04:40:09;8.80;99.90
4366;DHT22;2196;47.422;9.656;2023-03-14T04:42:36;8.80;99.90
4366;DHT22;2196;47.422;9.656;2023-03-14T04:45:04;8.80;99.90
4366;DHT22;2196;47.422;9.656;2023-03-14T04:47:33;8.80;99.90
4366;DHT22;2196;47.422;9.656;2023-03-14T04:50:00;8.80;99.90
4366;DHT22;2196;47.422;9.656;2023-03-14T04:52:27;8.70;99.90
4366;DHT22;2196;47.422;9.656;2023-03-14T04:54:54;8.70;99.90
4366;DHT22;2196;47.422;9.656;2023-03-14T04:57:21;8.70;99.90
4366;DHT22;2196;47.422;9.656;2023-03-14T04:59:48;8.80;99.90
4366;DHT22;2196;47.422;9.656;2023-03-14T05:02:15;8.70;99.90
4366;DHT22;2196;47.422;9.656;2023-03-14T05:04:43;8.70;99.90
4366;DHT22;2196;47.422;9.656;2023-03-14T05:07:10;8.70;99.90
4366;DHT22;2196;47.422;9.656;2023-03-14T05:09:37;8.70;99.90
4366;DHT22;2196;47.422;9.656;2023-03-14T05:12:04;8.70;99.90
4366;DHT22;2196;47.422;9.656;2023-03-14T05:14:32;8.70;99.90
4366;DHT22;2196;47.422;9.656;2023-03-14T05:16:59;8.70;99.90
4366;DHT22;2196;47.422;9.656;2023-03-14T05:19:26;8.70;99.90
4366;DHT22;2196;47.422;9.656;2023-03-14T05:21:54;8.70;99.90
4366;DHT22;2196;47.422;9.656;2023-03-14T05:24:21;8.80;99.90
4366;DHT22;2196;47.422;9.656;2023-03-14T05:26:48;8.80;99.90
4366;DHT22;2196;47.422;9.656;2023-03-14T05:29:15;8.80;99.90
4366;DHT22;2196;47.422;9.656;2023-03-14T05:31:42;8.80;99.90
4366;DHT22;2196;47.422;9.656;2023-03-14T05:34:09;8.80;99.90
4366;DHT22;2196;47.422;9.656;2023-03-14T05:36:36;8.90;99.90
4366;DHT22;2196;47.422;9.656;2023-03-14T05:39:04;8.90;99.90
4366;DHT22;2196;47.422;9.656;2023-03-14T05:41:31;8.90;99.90
4366;DHT22;2196;47.422;9.656;2023-03-14T05:43:59;8.80;99.90
4366;DHT22;2196;47.422;9.656;2023-03-14T05:46:26;8.70;99.90
4366;DHT22;2196;47.422;9.656;2023-03-14T05:48:53;8.80;99.90
4366;DHT22;2196;47.422;9.656;2023-03-14T05:51:20;8.80;99.90
4366;DHT22;2196;47.422;9.656;2023-03-14T05:53:47;8.70;99.90
4366;DHT22;2196;47.422;9.656;2023-03-14T05:56:16;8.70;99.90
4366;DHT22;2196;47.422;9.656;2023-03-14T05:58:43;8.70;99.90
4366;DHT22;2196;47.422;9.656;2023-03-14T06:01:10;8.70;99.90
4366;DHT22;2196;47.422;9.656;2023-03-14T06:03:37;8.70;99.90
4366;DHT22;2196;47.422;9.656;2023-03-14T06:06:04;8.70;99.90
4366;DHT22;2196;47.422;9.656;2023-03-14T06:08:31;8.70;99.90
4366;DHT22;2196;47.422;9.656;2023-03-14T06:11:01;8.70;99.90
4366;DHT22;2196;47.422;9.656;2023-03-14T06:13:30;8.70;99.90
4366;DHT22;2196;47.422;9.656;2023-03-14T06:15:57;8.60;99.90
4366;DHT22;2196;47.422;9.656;2023-03-14T06:18:24;8.60;99.90
4366;DHT22;2196;47.422;9.656;2023-03-14T06:20:53;8.50;99.90
4366;DHT22;2196;47.422;9.656;2023-03-14T06:23:21;8.50;99.90
4366;DHT22;2196;47.422;9.656;2023-03-14T06:25:48;8.50;99.90
4366;DHT22;2196;47.422;9.656;2023-03-14T06:28:16;8.40;99.90
4366;DHT22;2196;47.422;9.656;2023-03-14T06:30:44;8.50;99.90
4366;DHT22;2196;47.422;9.656;2023-03-14T06:33:11;8.40;99.90
4366;DHT22;2196;47.422;9.656;2023-03-14T06:35:38;8.40;99.90
4366;DHT22;2196;47.422;9.656;2023-03-14T06:38:05;8.40;99.90
4366;DHT22;2196;47.422;9.656;2023-03-14T06:40:32;8.40;99.90
4366;DHT22;2196;47.422;9.656;2023-03-14T06:42:59;8.50;99.90
4366;DHT22;2196;47.422;9.656;2023-03-14T06:45:26;8.50;99.90
4366;DHT22;2196;47.422;9.656;2023-03-14T06:47:56;8.50;99.90
4366;DHT22;2196;47.422;9.656;2023-03-14T06:50:23;8.60;99.90
4366;DHT22;2196;47.422;9.656;2023-03-14T06:52:50;8.60;99.90
4366;DHT22;2196;47.422;9.656;2023-03-14T06:55:17;8.60;99.90
4366;DHT22;2196;47.422;9.656;2023-03-14T06:57:44;8.60;99.90
4366;DHT22;2196;47.422;9.656;2023-03-14T07:00:13;8.60;99.90
4366;DHT22;2196;47.422;9.656;2023-03-14T07:02:40;8.70;99.90
4366;DHT22;2196;47.422;9.656;2023-03-14T07:05:09;8.70;99.90
4366;DHT22;2196;47.422;9.656;2023-03-14T07:07:36;8.80;99.90
4366;DHT22;2196;47.422;9.656;2023-03-14T07:10:04;8.80;99.90
4366;DHT22;2196;47.422;9.656;2023-03-14T07:12:31;8.90;99.90
4366;DHT22;2196;47.422;9.656;2023-03-14T07:14:58;9.00;99.90
4366;DHT22;2196;47.422;9.656;2023-03-14T07:17:25;9.00;99.90
4366;DHT22;2196;47.422;9.656;2023-03-14T07:19:52;9.10;99.90
4366;DHT22;2196;47.422;9.656;2023-03-14T07:22:21;9.20;99.90
4366;DHT22;2196;47.422;9.656;2023-03-14T07:24:48;9.30;99.90
4366;DHT22;2196;47.422;9.656;2023-03-14T07:27:15;9.30;99.90
4366;DHT22;2196;47.422;9.656;2023-03-14T07:29:43;9.40;99.90
4366;DHT22;2196;47.422;9.656;2023-03-14T07:32:13;9.40;99.90
4366;DHT22;2196;47.422;9.656;2023-03-14T07:34:42;9.50;99.90
4366;DHT22;2196;47.422;9.656;2023-03-14T07:37:10;9.60;99.90
4366;DHT22;2196;47.422;9.656;2023-03-14T07:39:38;9.80;99.90
4366;DHT22;2196;47.422;9.656;2023-03-14T07:42:05;9.80;99.90
4366;DHT22;2196;47.422;9.656;2023-03-14T07:44:33;9.80;99.90
4366;DHT22;2196;47.422;9.656;2023-03-14T07:47:00;9.70;99.90
4366;DHT22;2196;47.422;9.656;2023-03-14T07:49:26;9.70;99.90
4366;DHT22;2196;47.422;9.656;2023-03-14T07:51:53;9.70;99.90
4366;DHT22;2196;47.422;9.656;2023-03-14T07:54:21;9.90;99.90
4366;DHT22;2196;47.422;9.656;2023-03-14T07:56:50;10.10;99.90
4366;DHT22;2196;47.422;9.656;2023-03-14T07:59:18;10.30;99.90
4366;DHT22;2196;47.422;9.656;2023-03-14T08:01:46;10.40;99.90
4366;DHT22;2196;47.422;9.656;2023-03-14T08:04:13;10.60;99.90
4366;DHT22;2196;47.422;9.656;2023-03-14T08:06:40;10.60;99.90
4366;DHT22;2196;47.422;9.656;2023-03-14T08:09:07;10.50;99.90
4366;DHT22;2196;47.422;9.656;2023-03-14T08:11:34;10.60;99.90
4366;DHT22;2196;47.422;9.656;2023-03-14T08:14:02;10.70;99.90
4366;DHT22;2196;47.422;9.656;2023-03-14T08:16:29;10.70;99.90
4366;DHT22;2196;47.422;9.656;2023-03-14T08:18:56;10.70;99.90
4366;DHT22;2196;47.422;9.656;2023-03-14T08:21:23;10.70;99.90
4366;DHT22;2196;47.422;9.656;2023-03-14T08:23:50;10.60;99.90
4366;DHT22;2196;47.422;9.656;2023-03-14T08:26:17;10.70;99.90
4366;DHT22;2196;47.422;9.656;2023-03-14T08:28:44;11.20;99.90
4366;DHT22;2196;47.422;9.656;2023-03-14T08:31:13;11.60;99.90
4366;DHT22;2196;47.422;9.656;2023-03-14T08:33:40;11.70;99.90
4366;DHT22;2196;47.422;9.656;2023-03-14T08:36:08;11.70;99.90
4366;DHT22;2196;47.422;9.656;2023-03-14T08:38:35;11.80;99.90
4366;DHT22;2196;47.422;9.656;2023-03-14T08:41:03;11.90;99.90
4366;DHT22;2196;47.422;9.656;2023-03-14T08:43:30;12.20;99.90
4366;DHT22;2196;47.422;9.656;2023-03-14T08:45:58;12.30;99.90
4366;DHT22;2196;47.422;9.656;2023-03-14T08:48:27;12.30;99.90
4366;DHT22;2196;47.422;9.656;2023-03-14T08:50:55;12.60;99.90
4366;DHT22;2196;47.422;9.656;2023-03-14T08:53:22;12.70;99.90
4366;DHT22;2196;47.422;9.656;2023-03-14T08:55:52;13.10;99.90
4366;DHT22;2196;47.422;9.656;2023-03-14T08:58:19;13.20;99.90
4366;DHT22;2196;47.422;9.656;2023-03-14T09:00:48;13.00;99.90
4366;DHT22;2196;47.422;9.656;2023-03-14T09:03:15;12.70;99.90
4366;DHT22;2196;47.422;9.656;2023-03-14T09:05:43;12.60;99.90
4366;DHT22;2196;47.422;9.656;2023-03-14T09:08:10;12.50;99.90
4366;DHT22;2196;47.422;9.656;2023-03-14T09:10:37;12.30;99.90
4366;DHT22;2196;47.422;9.656;2023-03-14T09:13:05;12.40;99.90
4366;DHT22;2196;47.422;9.656;2023-03-14T09:15:32;12.30;99.90
4366;DHT22;2196;47.422;9.656;2023-03-14T09:17:59;12.50;99.90
4366;DHT22;2196;47.422;9.656;2023-03-14T09:20:27;12.70;99.90
4366;DHT22;2196;47.422;9.656;2023-03-14T09:22:57;12.90;99.90
4366;DHT22;2196;47.422;9.656;2023-03-14T09:25:24;13.20;99.90
4366;DHT22;2196;47.422;9.656;2023-03-14T09:27:54;13.60;99.90
4366;DHT22;2196;47.422;9.656;2023-03-14T09:30:21;14.10;99.90
4366;DHT22;2196;47.422;9.656;2023-03-14T09:32:48;14.20;99.90
4366;DHT22;2196;47.422;9.656;2023-03-14T09:35:18;14.30;99.90
4366;DHT22;2196;47.422;9.656;2023-03-14T09:37:45;14.00;99.90
4366;DHT22;2196;47.422;9.656;2023-03-14T09:40:19;13.50;99.90
4366;DHT22;2196;47.422;9.656;2023-03-14T09:42:48;13.10;99.90
4366;DHT22;2196;47.422;9.656;2023-03-14T09:45:22;13.00;99.90
4366;DHT22;2196;47.422;9.656;2023-03-14T09:47:52;12.80;99.90
4366;DHT22;2196;47.422;9.656;2023-03-14T09:50:19;12.70;99.90
4366;DHT22;2196;47.422;9.656;2023-03-14T09:52:49;12.50;99.90
4366;DHT22;2196;47.422;9.656;2023-03-14T09:55:22;12.40;99.90
4366;DHT22;2196;47.422;9.656;2023-03-14T09:57:57;12.40;99.90
4366;DHT22;2196;47.422;9.656;2023-03-14T10:00:27;12.20;99.90
4366;DHT22;2196;47.422;9.656;2023-03-14T10:02:56;12.20;99.90
4366;DHT22;2196;47.422;9.656;2023-03-14T10:05:25;12.10;99.90
4366;DHT22;2196;47.422;9.656;2023-03-14T10:07:53;12.10;99.90
4366;DHT22;2196;47.422;9.656;2023-03-14T10:10:23;12.10;99.90
4366;DHT22;2196;47.422;9.656;2023-03-14T10:12:56;12.10;99.90
4366;DHT22;2196;47.422;9.656;2023-03-14T10:15:25;12.00;99.90
4366;DHT22;2196;47.422;9.656;2023-03-14T10:17:53;11.90;99.90
4366;DHT22;2196;47.422;9.656;2023-03-14T10:20:32;11.90;99.90
4366;DHT22;2196;47.422;9.656;2023-03-14T10:23:01;11.90;99.90
4366;DHT22;2196;47.422;9.656;2023-03-14T10:25:31;12.00;99.90
4366;DHT22;2196;47.422;9.656;2023-03-14T10:28:00;12.00;99.90
4366;DHT22;2196;47.422;9.656;2023-03-14T10:30:29;12.10;99.90
4366;DHT22;2196;47.422;9.656;2023-03-14T10:32:56;12.10;99.90
4366;DHT22;2196;47.422;9.656;2023-03-14T10:35:24;12.10;99.90
4366;DHT22;2196;47.422;9.656;2023-03-14T10:37:56;12.10;99.90
4366;DHT22;2196;47.422;9.656;2023-03-14T10:40:27;12.10;99.90
4366;DHT22;2196;47.422;9.656;2023-03-14T10:42:58;12.10;99.90
4366;DHT22;2196;47.422;9.656;2023-03-14T10:45:32;12.20;99.90
4366;DHT22;2196;47.422;9.656;2023-03-14T10:48:07;12.20;99.90
4366;DHT22;2196;47.422;9.656;2023-03-14T10:50:48;12.20;99.90
4366;DHT22;2196;47.422;9.656;2023-03-14T10:53:17;12.20;99.90
4366;DHT22;2196;47.422;9.656;2023-03-14T10:55:45;12.20;99.90
4366;DHT22;2196;47.422;9.656;2023-03-14T10:58:24;12.20;99.90
4366;DHT22;2196;47.422;9.656;2023-03-14T11:01:00;12.20;99.90
4366;DHT22;2196;47.422;9.656;2023-03-14T11:03:31;12.30;99.90
4366;DHT22;2196;47.422;9.656;2023-03-14T11:06:07;12.40;99.90
4366;DHT22;2196;47.422;9.656;2023-03-14T11:08:44;12.40;99.90
4366;DHT22;2196;47.422;9.656;2023-03-14T11:11:18;12.50;99.90
4366;DHT22;2196;47.422;9.656;2023-03-14T11:13:58;12.50;99.90
4366;DHT22;2196;47.422;9.656;2023-03-14T11:16:31;12.60;99.90
4366;DHT22;2196;47.422;9.656;2023-03-14T11:19:14;12.70;99.90
4366;DHT22;2196;47.422;9.656;2023-03-14T11:21:49;12.70;99.90
4366;DHT22;2196;47.422;9.656;2023-03-14T11:24:38;12.80;99.90
4366;DHT22;2196;47.422;9.656;2023-03-14T11:27:14;12.80;99.90
4366;DHT22;2196;47.422;9.656;2023-03-14T11:29:54;12.90;99.90
4366;DHT22;2196;47.422;9.656;2023-03-14T11:32:31;13.00;99.90
4366;DHT22;2196;47.422;9.656;2023-03-14T11:35:03;13.10;99.90
4366;DHT22;2196;47.422;9.656;2023-03-14T11:37:34;13.10;99.90
4366;DHT22;2196;47.422;9.656;2023-03-14T11:40:08;13.00;99.90
4366;DHT22;2196;47.422;9.656;2023-03-14T11:42:39;13.00;99.90
4366;DHT22;2196;47.422;9.656;2023-03-14T11:45:15;13.00;99.90
4366;DHT22;2196;47.422;9.656;2023-03-14T11:47:45;13.00;99.90
4366;DHT22;2196;47.422;9.656;2023-03-14T11:50:18;12.80;99.90
4366;DHT22;2196;47.422;9.656;2023-03-14T11:52:53;12.80;99.90
4366;DHT22;2196;47.422;9.656;2023-03-14T11:55:25;12.70;99.90
4366;DHT22;2196;47.422;9.656;2023-03-14T11:57:58;12.70;99.90
4366;DHT22;2196;47.422;9.656;2023-03-14T12:00:28;12.70;99.90
4366;DHT22;2196;47.422;9.656;2023-03-14T12:03:00;12.80;99.90
4366;DHT22;2196;47.422;9.656;2023-03-14T12:05:43;12.70;99.90
4366;DHT22;2196;47.422;9.656;2023-03-14T12:11:12;12.30;99.90
4366;DHT22;2196;47.422;9.656;2023-03-14T12:13:41;11.90;99.90
4366;DHT22;2196;47.422;9.656;2023-03-14T12:16:34;11.60;99.90
4366;DHT22;2196;47.422;9.656;2023-03-14T12:19:24;11.40;99.90
4366;DHT22;2196;47.422;9.656;2023-03-14T12:21:56;11.20;99.90
4366;DHT22;2196;47.422;9.656;2023-03-14T12:24:27;11.10;99.90
4366;DHT22;2196;47.422;9.656;2023-03-14T12:26:57;11.00;99.90
4366;DHT22;2196;47.422;9.656;2023-03-14T12:29:24;10.90;99.90
4366;DHT22;2196;47.422;9.656;2023-03-14T12:34:45;10.60;99.90
4366;DHT22;2196;47.422;9.656;2023-03-14T12:37:22;10.30;99.90
4366;DHT22;2196;47.422;9.656;2023-03-14T12:40:03;10.10;99.90
4366;DHT22;2196;47.422;9.656;2023-03-14T12:42:43;9.90;99.90
4366;DHT22;2196;47.422;9.656;2023-03-14T12:45:21;9.70;99.90
4366;DHT22;2196;47.422;9.656;2023-03-14T12:47:57;9.50;99.90
4366;DHT22;2196;47.422;9.656;2023-03-14T12:50:34;9.40;99.90
4366;DHT22;2196;47.422;9.656;2023-03-14T12:53:22;9.40;99.90
4366;DHT22;2196;47.422;9.656;2023-03-14T12:56:01;9.30;99.90
4366;DHT22;2196;47.422;9.656;2023-03-14T12:58:35;9.30;99.90
4366;DHT22;2196;47.422;9.656;2023-03-14T13:01:06;9.20;99.90
4366;DHT22;2196;47.422;9.656;2023-03-14T13:03:45;9.10;99.90
4366;DHT22;2196;47.422;9.656;2023-03-14T13:06:46;9.10;99.90
4366;DHT22;2196;47.422;9.656;2023-03-14T13:12:17;8.90;99.90
4366;DHT22;2196;47.422;9.656;2023-03-14T13:14:50;8.80;99.90
4366;DHT22;2196;47.422;9.656;2023-03-14T13:17:23;8.70;99.90
4366;DHT22;2196;47.422;9.656;2023-03-14T13:19:53;8.70;99.90
4366;DHT22;2196;47.422;9.656;2023-03-14T13:22:25;8.70;99.90
4366;DHT22;2196;47.422;9.656;2023-03-14T13:25:00;8.70;99.90
4366;DHT22;2196;47.422;9.656;2023-03-14T13:27:30;8.80;99.90
4366;DHT22;2196;47.422;9.656;2023-03-14T13:29:58;8.80;99.90
4366;DHT22;2196;47.422;9.656;2023-03-14T13:32:27;8.90;99.90
4366;DHT22;2196;47.422;9.656;2023-03-14T13:34:56;9.00;99.90
4366;DHT22;2196;47.422;9.656;2023-03-14T13:37:26;9.00;99.90
4366;DHT22;2196;47.422;9.656;2023-03-14T13:39:55;9.00;99.90
4366;DHT22;2196;47.422;9.656;2023-03-14T13:42:25;9.10;99.90
4366;DHT22;2196;47.422;9.656;2023-03-14T13:44:54;9.10;99.90
4366;DHT22;2196;47.422;9.656;2023-03-14T13:47:23;9.20;99.90
4366;DHT22;2196;47.422;9.656;2023-03-14T13:49:52;9.30;99.90
4366;DHT22;2196;47.422;9.656;2023-03-14T13:52:28;9.40;99.90
4366;DHT22;2196;47.422;9.656;2023-03-14T13:54:56;9.40;99.90
4366;DHT22;2196;47.422;9.656;2023-03-14T13:57:23;9.50;99.90
4366;DHT22;2196;47.422;9.656;2023-03-14T14:00:01;9.60;99.90
4366;DHT22;2196;47.422;9.656;2023-03-14T14:02:32;9.50;99.90
4366;DHT22;2196;47.422;9.656;2023-03-14T14:05:00;9.50;99.90
4366;DHT22;2196;47.422;9.656;2023-03-14T14:07:28;9.60;99.90
4366;DHT22;2196;47.422;9.656;2023-03-14T14:09:56;9.50;99.90
4366;DHT22;2196;47.422;9.656;2023-03-14T14:12:28;9.50;99.90
4366;DHT22;2196;47.422;9.656;2023-03-14T14:14:58;9.50;99.90
4366;DHT22;2196;47.422;9.656;2023-03-14T14:17:31;9.50;99.90
4366;DHT22;2196;47.422;9.656;2023-03-14T14:20:00;9.50;99.90
4366;DHT22;2196;47.422;9.656;2023-03-14T14:22:30;9.50;99.90
4366;DHT22;2196;47.422;9.656;2023-03-14T14:24:57;9.50;99.90
4366;DHT22;2196;47.422;9.656;2023-03-14T14:27:28;9.30;99.90
4366;DHT22;2196;47.422;9.656;2023-03-14T14:30:02;9.20;99.90
4366;DHT22;2196;47.422;9.656;2023-03-14T14:32:35;9.20;99.90
4366;DHT22;2196;47.422;9.656;2023-03-14T14:35:03;9.30;99.90
4366;DHT22;2196;47.422;9.656;2023-03-14T14:37:33;9.30;99.90
4366;DHT22;2196;47.422;9.656;2023-03-14T14:40:07;9.40;99.90
4366;DHT22;2196;47.422;9.656;2023-03-14T14:42:40;9.50;99.90
4366;DHT22;2196;47.422;9.656;2023-03-14T14:45:12;9.70;99.90
4366;DHT22;2196;47.422;9.656;2023-03-14T14:47:49;9.70;99.90
4366;DHT22;2196;47.422;9.656;2023-03-14T14:50:28;9.90;99.90
4366;DHT22;2196;47.422;9.656;2023-03-14T14:52:58;10.00;99.90
4366;DHT22;2196;47.422;9.656;2023-03-14T14:55:31;10.00;99.90
4366;DHT22;2196;47.422;9.656;2023-03-14T14:58:12;9.90;99.90
4366;DHT22;2196;47.422;9.656;2023-03-14T15:00:41;9.80;99.90
4366;DHT22;2196;47.422;9.656;2023-03-14T15:03:13;9.70;99.90
4366;DHT22;2196;47.422;9.656;2023-03-14T15:05:41;9.50;99.90
4366;DHT22;2196;47.422;9.656;2023-03-14T15:08:10;9.40;99.90
4366;DHT22;2196;47.422;9.656;2023-03-14T15:10:37;9.30;99.90
4366;DHT22;2196;47.422;9.656;2023-03-14T15:13:04;9.20;99.90
4366;DHT22;2196;47.422;9.656;2023-03-14T15:15:31;9.10;99.90
4366;DHT22;2196;47.422;9.656;2023-03-14T15:18:00;9.00;99.90
4366;DHT22;2196;47.422;9.656;2023-03-14T15:20:27;9.00;99.90
4366;DHT22;2196;47.422;9.656;2023-03-14T15:22:54;9.00;99.90
4366;DHT22;2196;47.422;9.656;2023-03-14T15:25:22;9.00;99.90
4366;DHT22;2196;47.422;9.656;2023-03-14T15:27:51;9.00;99.90
4366;DHT22;2196;47.422;9.656;2023-03-14T15:30:18;9.00;99.90
4366;DHT22;2196;47.422;9.656;2023-03-14T15:32:45;8.80;99.90
4366;DHT22;2196;47.422;9.656;2023-03-14T15:35:12;8.70;99.90
4366;DHT22;2196;47.422;9.656;2023-03-14T15:37:40;8.60;99.90
4366;DHT22;2196;47.422;9.656;2023-03-14T15:40:12;8.30;99.90
4366;DHT22;2196;47.422;9.656;2023-03-14T15:42:41;8.10;99.90
4366;DHT22;2196;47.422;9.656;2023-03-14T15:45:09;8.00;99.90
4366;DHT22;2196;47.422;9.656;2023-03-14T15:47:36;7.90;99.90
4366;DHT22;2196;47.422;9.656;2023-03-14T15:50:03;7.70;99.90
4366;DHT22;2196;47.422;9.656;2023-03-14T15:52:30;7.80;99.90
4366;DHT22;2196;47.422;9.656;2023-03-14T15:54:57;7.80;99.90
4366;DHT22;2196;47.422;9.656;2023-03-14T15:57:25;7.80;99.90
4366;DHT22;2196;47.422;9.656;2023-03-14T15:59:54;8.00;99.90
4366;DHT22;2196;47.422;9.656;2023-03-14T16:02:21;8.10;99.90
4366;DHT22;2196;47.422;9.656;2023-03-14T16:04:48;8.10;99.90
4366;DHT22;2196;47.422;9.656;2023-03-14T16:07:15;8.10;99.90
4366;DHT22;2196;47.422;9.656;2023-03-14T16:09:42;8.20;99.90
4366;DHT22;2196;47.422;9.656;2023-03-14T16:12:09;8.20;99.90
4366;DHT22;2196;47.422;9.656;2023-03-14T16:14:36;8.20;99.90
4366;DHT22;2196;47.422;9.656;2023-03-14T16:17:09;8.20;99.90
4366;DHT22;2196;47.422;9.656;2023-03-14T16:19:37;8.30;99.90
4366;DHT22;2196;47.422;9.656;2023-03-14T16:22:04;8.40;99.90
4366;DHT22;2196;47.422;9.656;2023-03-14T16:24:31;8.40;99.90
4366;DHT22;2196;47.422;9.656;2023-03-14T16:26:58;8.50;99.90
4366;DHT22;2196;47.422;9.656;2023-03-14T16:29:25;8.50;99.90
4366;DHT22;2196;47.422;9.656;2023-03-14T16:31:52;8.60;99.90
4366;DHT22;2196;47.422;9.656;2023-03-14T16:34:20;8.70;99.90
4366;DHT22;2196;47.422;9.656;2023-03-14T16:36:47;8.70;99.90